首页
METAR-TAF:

METAR-TAF

机场 :

馬拉博機場

馬拉博, 赤道几内亚

纬度: 03-45-18N, 经度: 08-42-31E, 海拔: 23米

当前天气观测

该预报发布于22分钟前的08:30 UTC
风速5节,风向西转西北,在西西北之间变化
温度 28°C
湿度 84%
气压 1015 hPa
能见度10公里或以上
散云层高于800英尺
少量云层高于2000英尺, 积雨云.
多云层高于6000英尺

METAR: FGSL 160830Z 29005KT 260V320 9999 SCT008 FEW020CB BKN060 28/25 Q1015 NOSIG

时间: 09:52 (08:52 UTC)

预报

该预报发布于3小时和52分钟前的05:00 UTC
预报有效从16日的 06点(UTC)到 17日的 12点(UTC)
风速4节,风向西转西南
能见度10公里或以上
少量云层高于600英尺
散云层高于800英尺
少量云层高于2000英尺, 积雨云.
雷暴
短暂存在
从 16日的 06点(UTC)到 16日的 16点(UTC)
能見度: 4000
多云层高于800英尺
少量云层高于1800英尺, 积雨云.
雷暴, 雨
短暂存在
从 17日的 01点(UTC)到 17日的 07点(UTC)
多云层高于800英尺
少量云层高于2000英尺, 积雨云.
雷暴,

TAF: FGSL 160500Z 1606/1712 24004KT 9999 TS FEW006 SCT008 FEW020CB TEMPO 1606/1616 4000 TSRA BKN008 FEW018CB TEMPO 1701/1707 TS BKN008 FEW020CB

超过4000个机场的气象观测和天气预报(METAR&TAF报告)。

可查询的气象台以黄色和红色小点在地图上表示。

将鼠标移到小点上方,可查看气象台名称。

然后点击查看天气观测和预报。

如需切换地图:点击带黑十字的绿色按钮放大地图;点击带横线的绿色按钮缩小地图;或者点击绿色箭头查看邻近地区的地图。


METAR-TAF: